Time;durP1;ratioP1;P1;durP2;ratioP2;P2;SDS_P1;SDS_P2;PMS_P1;PMS_P2;Temp;Humidity;BMP_temperature;BMP_pressure;BME280_temperature;BME280_humidity;BME280_pressure;Samples;Min_cycle;Max_cycle;Signal;HPM_P1;HPM_P2
2021/09/04 00:02:13;;;;;;;18.13;16.63;;;;;;;;;;5109269;28;24951;-64
2021/09/04 00:04:38;;;;;;;17.47;16.07;;;;;;;;;;5116809;27;24409;-64
2021/09/04 00:07:04;;;;;;;18.48;16.88;;;;;;;;;;5109060;28;24406;-64
2021/09/04 00:09:29;;;;;;;18.17;16.77;;;;;;;;;;5110089;27;24416;-64
2021/09/04 00:11:54;;;;;;;16.85;15.55;;;;;;;;;;5108580;28;24429;-64
2021/09/04 00:14:19;;;;;;;17.70;16.10;;;;;;;;;;5108777;28;24935;-64
2021/09/04 00:16:44;;;;;;;16.90;15.50;;;;;;;;;;5108980;28;24459;-64
2021/09/04 00:19:09;;;;;;;18.15;16.55;;;;;;;;;;5109674;27;24425;-64
2021/09/04 00:21:35;;;;;;;17.40;16.00;;;;;;;;;;5108961;28;24410;-64
2021/09/04 00:24:00;;;;;;;17.05;15.65;;;;;;;;;;5108041;28;24417;-65
2021/09/04 00:26:27;;;;;;;16.92;15.52;;;;;;;;;;5108408;28;24478;-64
2021/09/04 00:28:53;;;;;;;17.27;15.70;;;;;;;;;;5108180;27;24428;-64
2021/09/04 00:31:18;;;;;;;17.10;15.70;;;;;;;;;;5109306;28;24406;-65
2021/09/04 00:33:43;;;;;;;16.83;15.53;;;;;;;;;;5108098;28;24571;-64
2021/09/04 00:36:08;;;;;;;16.92;15.43;;;;;;;;;;5108731;28;24398;-64
2021/09/04 00:38:33;;;;;;;17.30;15.90;;;;;;;;;;5108868;27;24465;-64
2021/09/04 00:40:58;;;;;;;16.92;15.52;;;;;;;;;;5103423;28;25082;-64
2021/09/04 00:43:24;;;;;;;16.57;15.17;;;;;;;;;;5107829;28;24421;-64
2021/09/04 00:45:49;;;;;;;16.40;15.10;;;;;;;;;;5108732;28;24504;-63
2021/09/04 00:48:14;;;;;;;16.77;15.47;;;;;;;;;;5108362;28;24772;-63
2021/09/04 00:50:39;;;;;;;17.00;15.60;;;;;;;;;;5108761;27;24536;-64
2021/09/04 00:53:05;;;;;;;16.40;15.10;;;;;;;;;;5108095;28;24965;-63
2021/09/04 00:55:30;;;;;;;16.40;15.10;;;;;;;;;;5107956;28;24471;-64
2021/09/04 00:57:55;;;;;;;16.23;14.80;;;;;;;;;;5107646;28;24418;-64
2021/09/04 01:00:21;;;;;;;15.80;14.60;;;;;;;;;;5107877;27;24598;-64
2021/09/04 01:02:46;;;;;;;16.50;15.10;;;;;;;;;;5107983;28;24832;-64
2021/09/04 01:05:12;;;;;;;15.95;14.65;;;;;;;;;;5108127;28;25080;-64
2021/09/04 01:07:37;;;;;;;16.37;14.97;;;;;;;;;;5107705;28;24410;-65
2021/09/04 01:10:03;;;;;;;15.63;14.32;;;;;;;;;;5108607;28;24986;-65
2021/09/04 01:12:28;;;;;;;15.70;14.40;;;;;;;;;;5107543;28;24962;-65
2021/09/04 01:14:53;;;;;;;16.40;15.00;;;;;;;;;;5107600;28;24787;-65
2021/09/04 01:17:19;;;;;;;16.27;14.87;;;;;;;;;;5108036;28;24978;-65
2021/09/04 01:19:44;;;;;;;15.60;14.30;;;;;;;;;;5107023;28;24436;-64
2021/09/04 01:22:09;;;;;;;16.10;14.80;;;;;;;;;;5109258;27;24494;-64
2021/09/04 01:24:34;;;;;;;15.60;14.30;;;;;;;;;;5107197;28;24768;-64
2021/09/04 01:26:59;;;;;;;16.57;15.17;;;;;;;;;;5108466;28;24587;-64
2021/09/04 01:29:25;;;;;;;16.80;15.30;;;;;;;;;;5107612;28;24494;-64
2021/09/04 01:31:50;;;;;;;15.60;14.30;;;;;;;;;;5108178;27;24409;-64
2021/09/04 01:34:15;;;;;;;15.52;14.20;;;;;;;;;;5106985;28;24422;-64
2021/09/04 01:36:40;;;;;;;16.13;14.73;;;;;;;;;;5106218;28;24422;-64
2021/09/04 01:39:06;;;;;;;15.55;14.25;;;;;;;;;;5107282;28;24426;-64
2021/09/04 01:41:32;;;;;;;16.23;14.93;;;;;;;;;;5110902;28;24590;-63
2021/09/04 01:43:57;;;;;;;16.70;15.20;;;;;;;;;;5107267;28;24810;-63
2021/09/04 01:46:23;;;;;;;15.50;14.20;;;;;;;;;;5106638;28;24406;-64
2021/09/04 01:48:48;;;;;;;15.35;14.05;;;;;;;;;;5106903;28;25190;-63
2021/09/04 01:51:13;;;;;;;14.70;13.50;;;;;;;;;;5106266;28;24475;-63
2021/09/04 01:53:39;;;;;;;14.90;13.70;;;;;;;;;;5107450;28;24466;-63
2021/09/04 01:56:04;;;;;;;14.87;13.67;;;;;;;;;;5107021;28;24973;-63
2021/09/04 01:58:29;;;;;;;15.77;14.47;;;;;;;;;;5106471;28;24444;-64
2021/09/04 02:00:54;;;;;;;16.15;14.75;;;;;;;;;;5106969;28;24959;-63
2021/09/04 02:03:19;;;;;;;15.73;14.43;;;;;;;;;;5105255;28;24467;-63
2021/09/04 02:05:45;;;;;;;15.48;13.98;;;;;;;;;;5102708;28;24401;-63
2021/09/04 02:08:10;;;;;;;15.80;14.50;;;;;;;;;;5107233;28;24566;-63
2021/09/04 02:10:35;;;;;;;15.50;14.30;;;;;;;;;;5106909;28;24863;-63
2021/09/04 02:13:00;;;;;;;14.23;13.07;;;;;;;;;;5110375;28;24467;-63
2021/09/04 02:15:26;;;;;;;16.00;14.60;;;;;;;;;;5107416;28;24465;-63
2021/09/04 02:17:51;;;;;;;15.15;13.95;;;;;;;;;;5106423;28;24496;-63
2021/09/04 02:20:16;;;;;;;14.60;13.40;;;;;;;;;;5106922;28;24483;-63
2021/09/04 02:22:41;;;;;;;15.38;14.07;;;;;;;;;;5106596;28;24869;-63
2021/09/04 02:25:07;;;;;;;14.53;13.33;;;;;;;;;;5102510;28;24403;-63
2021/09/04 02:27:32;;;;;;;16.50;15.03;;;;;;;;;;5095052;28;24891;-63
2021/09/04 02:29:58;;;;;;;14.88;13.68;;;;;;;;;;5106795;28;24416;-63
2021/09/04 02:32:23;;;;;;;14.90;13.60;;;;;;;;;;5107044;28;24500;-64
2021/09/04 02:34:48;;;;;;;14.13;13.03;;;;;;;;;;5107871;28;24426;-64
2021/09/04 02:37:13;;;;;;;15.00;13.80;;;;;;;;;;5106931;28;24401;-64
2021/09/04 02:39:38;;;;;;;14.43;13.23;;;;;;;;;;5106759;28;24424;-64
2021/09/04 02:42:03;;;;;;;14.40;13.20;;;;;;;;;;5106973;28;24412;-65
2021/09/04 02:44:29;;;;;;;13.80;12.70;;;;;;;;;;5106155;28;25314;-64
2021/09/04 02:46:54;;;;;;;14.40;13.23;;;;;;;;;;5107147;28;24420;-65
2021/09/04 02:49:19;;;;;;;14.52;13.32;;;;;;;;;;5109570;28;24835;-64
2021/09/04 02:51:44;;;;;;;15.80;14.50;;;;;;;;;;5110899;28;24410;-64
2021/09/04 02:54:10;;;;;;;16.30;14.80;;;;;;;;;;5109758;27;24429;-64
2021/09/04 02:56:35;;;;;;;14.20;13.10;;;;;;;;;;5110303;28;24463;-63
2021/09/04 02:59:00;;;;;;;15.13;13.93;;;;;;;;;;5109631;28;24418;-63
2021/09/04 03:01:25;;;;;;;14.60;13.50;;;;;;;;;;5110223;28;24410;-63
2021/09/04 03:03:50;;;;;;;14.07;12.95;;;;;;;;;;5109723;28;24513;-63
2021/09/04 03:06:15;;;;;;;13.73;12.73;;;;;;;;;;5116815;27;24974;-63
2021/09/04 03:08:41;;;;;;;13.93;12.82;;;;;;;;;;5109451;28;24448;-63
2021/09/04 03:11:06;;;;;;;14.32;13.13;;;;;;;;;;5109634;28;24449;-64
2021/09/04 03:13:31;;;;;;;13.60;12.57;;;;;;;;;;5109544;28;25018;-64
2021/09/04 03:15:56;;;;;;;12.30;11.30;;;;;;;;;;5115782;27;24428;-64
2021/09/04 03:18:21;;;;;;;12.90;11.90;;;;;;;;;;5120095;27;24409;-64
2021/09/04 03:20:46;;;;;;;13.70;12.60;;;;;;;;;;5109515;28;24563;-64
2021/09/04 03:23:12;;;;;;;13.17;12.17;;;;;;;;;;5110400;28;24398;-64
2021/09/04 03:25:37;;;;;;;12.70;11.70;;;;;;;;;;5108687;28;24876;-64
2021/09/04 03:28:02;;;;;;;12.85;11.85;;;;;;;;;;5110358;27;24408;-64
2021/09/04 03:30:27;;;;;;;12.47;11.47;;;;;;;;;;5109613;28;24433;-65
2021/09/04 03:32:52;;;;;;;13.10;12.10;;;;;;;;;;5109642;28;25037;-64
2021/09/04 03:35:18;;;;;;;13.20;12.20;;;;;;;;;;5109483;28;24806;-65
2021/09/04 03:37:43;;;;;;;12.87;11.87;;;;;;;;;;5120114;27;24423;-65
2021/09/04 03:40:08;;;;;;;12.90;11.90;;;;;;;;;;5109558;28;24491;-65
2021/09/04 03:42:33;;;;;;;13.20;12.10;;;;;;;;;;5109233;28;24412;-65
2021/09/04 03:44:59;;;;;;;12.67;11.67;;;;;;;;;;5109109;28;24504;-65
2021/09/04 03:47:24;;;;;;;12.45;11.45;;;;;;;;;;5115024;27;24947;-65
2021/09/04 03:49:49;;;;;;;13.50;12.50;;;;;;;;;;5114529;27;24451;-65
2021/09/04 03:52:14;;;;;;;12.90;11.90;;;;;;;;;;5109338;28;24467;-65
2021/09/04 03:54:39;;;;;;;12.60;11.60;;;;;;;;;;5108397;28;24973;-66
2021/09/04 03:57:04;;;;;;;13.60;12.50;;;;;;;;;;5108125;28;24478;-65
2021/09/04 03:59:29;;;;;;;12.97;11.97;;;;;;;;;;5109600;27;24422;-66
2021/09/04 04:01:55;;;;;;;13.05;12.05;;;;;;;;;;5109312;28;24842;-65
2021/09/04 04:04:20;;;;;;;12.37;11.37;;;;;;;;;;5109232;28;24410;-65
2021/09/04 04:06:45;;;;;;;11.85;10.95;;;;;;;;;;5108382;28;24459;-65
2021/09/04 04:09:10;;;;;;;12.85;11.85;;;;;;;;;;5090678;28;24438;-64
2021/09/04 04:11:35;;;;;;;12.80;11.80;;;;;;;;;;5109320;28;24979;-64
2021/09/04 04:14:00;;;;;;;13.07;12.05;;;;;;;;;;5108267;28;24463;-63
2021/09/04 04:16:26;;;;;;;12.20;11.25;;;;;;;;;;5108365;28;24521;-64
2021/09/04 04:18:51;;;;;;;11.73;10.83;;;;;;;;;;5108958;27;24410;-64
2021/09/04 04:21:16;;;;;;;11.20;10.30;;;;;;;;;;5113425;27;25079;-64
2021/09/04 04:23:41;;;;;;;13.32;12.23;;;;;;;;;;5108883;28;25217;-65
2021/09/04 04:26:06;;;;;;;12.97;11.97;;;;;;;;;;5109609;27;24949;-64
2021/09/04 04:28:31;;;;;;;13.10;12.10;;;;;;;;;;5104215;28;24425;-65
2021/09/04 04:30:57;;;;;;;12.97;11.97;;;;;;;;;;5107984;28;25005;-65
2021/09/04 04:33:22;;;;;;;12.30;11.38;;;;;;;;;;5108087;28;24466;-64
2021/09/04 04:35:47;;;;;;;12.37;11.47;;;;;;;;;;5108753;27;24452;-66
2021/09/04 04:38:12;;;;;;;11.93;11.02;;;;;;;;;;5119157;27;24405;-65
2021/09/04 04:40:37;;;;;;;13.48;12.38;;;;;;;;;;5107361;28;24599;-64
2021/09/04 04:43:02;;;;;;;15.57;14.18;;;;;;;;;;5108324;28;24409;-64
2021/09/04 04:45:27;;;;;;;13.67;12.57;;;;;;;;;;5107898;28;24994;-64
2021/09/04 04:47:53;;;;;;;13.90;12.80;;;;;;;;;;5108518;27;24413;-64
2021/09/04 04:50:19;;;;;;;12.87;11.87;;;;;;;;;;5107279;28;25174;-64
2021/09/04 04:52:44;;;;;;;13.48;12.30;;;;;;;;;;5105605;28;24421;-64
2021/09/04 04:55:09;;;;;;;12.30;11.30;;;;;;;;;;5107795;28;24800;-64
2021/09/04 04:57:35;;;;;;;12.50;11.60;;;;;;;;;;5108099;28;24416;-63
2021/09/04 05:00:00;;;;;;;12.07;11.17;;;;;;;;;;5104000;27;24467;-64
2021/09/04 05:02:25;;;;;;;11.70;10.80;;;;;;;;;;5107776;28;24492;-64
2021/09/04 05:04:50;;;;;;;10.87;10.07;;;;;;;;;;5107583;28;24751;-64
2021/09/04 05:07:16;;;;;;;12.70;11.70;;;;;;;;;;5107337;28;24493;-65
2021/09/04 05:09:41;;;;;;;10.93;10.13;;;;;;;;;;5106925;27;24508;-64
2021/09/04 05:12:06;;;;;;;12.73;11.73;;;;;;;;;;5107261;28;24418;-64
2021/09/04 05:14:31;;;;;;;12.10;11.20;;;;;;;;;;5107095;28;24490;-64
2021/09/04 05:16:56;;;;;;;12.38;11.48;;;;;;;;;;5097692;28;24454;-65
2021/09/04 05:19:22;;;;;;;13.00;12.00;;;;;;;;;;5105238;28;24430;-65
2021/09/04 05:21:48;;;;;;;12.00;11.10;;;;;;;;;;5106128;28;24848;-65
2021/09/04 05:24:13;;;;;;;12.32;11.32;;;;;;;;;;5106369;28;25002;-66
2021/09/04 05:26:38;;;;;;;13.63;12.57;;;;;;;;;;5106676;28;24500;-65
2021/09/04 05:29:03;;;;;;;13.10;11.90;;;;;;;;;;5106339;28;24806;-65
2021/09/04 05:31:28;;;;;;;12.23;11.30;;;;;;;;;;5107505;28;24402;-66
2021/09/04 05:33:54;;;;;;;11.67;10.77;;;;;;;;;;5107556;28;24385;-65
2021/09/04 05:36:19;;;;;;;11.70;10.80;;;;;;;;;;5107036;28;24408;-66
2021/09/04 05:38:44;;;;;;;11.65;10.65;;;;;;;;;;5105816;28;24409;-65
2021/09/04 05:41:09;;;;;;;11.23;10.43;;;;;;;;;;5106480;28;24440;-66
2021/09/04 05:43:34;;;;;;;11.20;10.40;;;;;;;;;;5111520;28;24809;-66
2021/09/04 05:46:00;;;;;;;11.30;10.40;;;;;;;;;;5115085;28;24470;-65
2021/09/04 05:48:25;;;;;;;11.03;10.17;;;;;;;;;;5107187;28;24410;-65
2021/09/04 05:50:50;;;;;;;11.10;10.20;;;;;;;;;;5106549;28;24434;-65
2021/09/04 05:53:15;;;;;;;11.30;10.40;;;;;;;;;;5107761;28;24456;-65
2021/09/04 05:55:40;;;;;;;11.75;10.85;;;;;;;;;;5109959;28;24409;-65
2021/09/04 05:58:05;;;;;;;11.88;10.98;;;;;;;;;;5107007;28;24414;-65
2021/09/04 06:00:30;;;;;;;10.63;9.83;;;;;;;;;;5107277;28;25241;-65
2021/09/04 06:02:56;;;;;;;11.67;10.77;;;;;;;;;;5106027;28;24420;-65
2021/09/04 06:05:21;;;;;;;11.30;10.50;;;;;;;;;;5107389;28;24410;-65
2021/09/04 06:07:46;;;;;;;9.10;8.40;;;;;;;;;;5105937;28;24444;-65
2021/09/04 06:10:11;;;;;;;10.70;9.90;;;;;;;;;;5107026;28;24485;-65
2021/09/04 06:12:37;;;;;;;12.10;11.20;;;;;;;;;;5106657;28;24977;-65
2021/09/04 06:15:02;;;;;;;12.50;11.60;;;;;;;;;;5106941;28;24425;-65
2021/09/04 06:17:27;;;;;;;11.50;10.70;;;;;;;;;;5104696;28;24475;-65
2021/09/04 06:19:52;;;;;;;10.70;9.90;;;;;;;;;;5109287;28;24417;-65
2021/09/04 06:22:18;;;;;;;9.20;8.50;;;;;;;;;;5108659;28;24414;-66
2021/09/04 06:24:43;;;;;;;8.83;8.23;;;;;;;;;;5111146;28;24442;-66
2021/09/04 06:27:08;;;;;;;11.30;10.40;;;;;;;;;;5110936;28;24504;-66
2021/09/04 06:29:33;;;;;;;9.30;8.60;;;;;;;;;;5112591;27;24857;-66
2021/09/04 06:31:58;;;;;;;11.10;10.20;;;;;;;;;;5110830;28;24496;-65
2021/09/04 06:34:23;;;;;;;9.73;9.03;;;;;;;;;;5110663;28;24394;-65
2021/09/04 06:36:49;;;;;;;10.50;9.70;;;;;;;;;;5111004;28;24495;-65
2021/09/04 06:39:14;;;;;;;10.73;9.93;;;;;;;;;;5110622;28;24410;-65
2021/09/04 06:41:39;;;;;;;8.88;8.18;;;;;;;;;;5107561;27;24768;-64
2021/09/04 06:44:04;;;;;;;10.10;9.20;;;;;;;;;;5121960;27;24433;-63
2021/09/04 06:46:32;;;;;;;9.80;9.02;;;;;;;;;;5111296;27;24414;-64
2021/09/04 06:48:57;;;;;;;12.68;11.68;;;;;;;;;;5110468;28;24410;-64
2021/09/04 06:51:22;;;;;;;12.00;11.10;;;;;;;;;;5110319;28;24432;-64
2021/09/04 06:53:47;;;;;;;10.38;9.60;;;;;;;;;;5111471;27;24412;-66
2021/09/04 06:56:14;;;;;;;12.82;11.82;;;;;;;;;;5109831;28;24518;-66
2021/09/04 06:58:39;;;;;;;9.90;9.10;;;;;;;;;;5109121;28;24814;-66
2021/09/04 07:01:04;;;;;;;10.35;9.55;;;;;;;;;;5110120;28;25122;-66
2021/09/04 07:03:29;;;;;;;8.70;8.10;;;;;;;;;;5115334;27;24832;-67
2021/09/04 07:05:54;;;;;;;9.87;9.13;;;;;;;;;;5105226;27;24398;-66
2021/09/04 07:08:20;;;;;;;11.82;10.93;;;;;;;;;;5110505;28;24438;-66
2021/09/04 07:10:45;;;;;;;12.13;11.23;;;;;;;;;;5108651;28;24406;-66
2021/09/04 07:13:10;;;;;;;10.50;9.70;;;;;;;;;;5109106;27;24414;-66
2021/09/04 07:15:35;;;;;;;10.07;9.30;;;;;;;;;;5108763;27;24990;-66
2021/09/04 07:18:00;;;;;;;10.70;9.90;;;;;;;;;;5107719;28;24417;-66
2021/09/04 07:20:25;;;;;;;10.70;9.90;;;;;;;;;;5102750;28;24467;-66
2021/09/04 07:22:50;;;;;;;11.65;10.75;;;;;;;;;;5108507;28;24968;-66
2021/09/04 07:25:16;;;;;;;10.15;9.35;;;;;;;;;;5108476;27;24420;-66
2021/09/04 07:27:42;;;;;;;11.68;10.77;;;;;;;;;;5116578;27;24501;-66
2021/09/04 07:30:07;;;;;;;14.57;13.40;;;;;;;;;;5109565;28;24504;-66
2021/09/04 07:32:32;;;;;;;12.70;11.70;;;;;;;;;;5109065;28;24406;-66
2021/09/04 07:34:57;;;;;;;13.80;12.70;;;;;;;;;;5102996;28;24970;-66
2021/09/04 07:37:23;;;;;;;13.23;12.20;;;;;;;;;;5099635;28;24416;-65
2021/09/04 07:39:48;;;;;;;12.80;11.80;;;;;;;;;;5110152;28;24913;-66
2021/09/04 07:42:13;;;;;;;10.85;10.05;;;;;;;;;;5096046;28;24828;-66
2021/09/04 07:44:38;;;;;;;11.90;11.00;;;;;;;;;;5108479;28;24417;-66
2021/09/04 07:47:04;;;;;;;10.40;9.60;;;;;;;;;;5098289;28;24475;-67
2021/09/04 07:49:29;;;;;;;16.73;15.20;;;;;;;;;;5108435;28;24444;-66
2021/09/04 07:51:55;;;;;;;13.18;12.18;;;;;;;;;;5109600;28;24414;-67
2021/09/04 07:54:20;;;;;;;14.23;13.13;;;;;;;;;;5108632;28;25036;-66
2021/09/04 07:56:45;;;;;;;13.25;12.25;;;;;;;;;;5109673;28;24421;-67
2021/09/04 07:59:11;;;;;;;11.70;10.73;;;;;;;;;;5108640;28;24406;-66
2021/09/04 08:01:36;;;;;;;13.80;12.60;;;;;;;;;;5109547;28;24442;-65
2021/09/04 08:04:01;;;;;;;11.15;10.30;;;;;;;;;;5108199;28;24421;-64
2021/09/04 08:06:26;;;;;;;15.10;13.90;;;;;;;;;;5109302;28;24400;-65
2021/09/04 08:08:51;;;;;;;15.07;13.77;;;;;;;;;;5109231;28;24409;-65
2021/09/04 08:11:18;;;;;;;16.10;14.70;;;;;;;;;;5108896;28;25229;-65
2021/09/04 08:13:43;;;;;;;15.20;14.00;;;;;;;;;;5116478;27;24409;-65
2021/09/04 08:16:08;;;;;;;13.30;12.20;;;;;;;;;;5115819;27;24417;-65
2021/09/04 08:18:34;;;;;;;17.30;15.80;;;;;;;;;;5108858;28;24417;-65
2021/09/04 08:21:02;;;;;;;15.50;14.20;;;;;;;;;;5108742;28;24931;-65
2021/09/04 08:23:27;;;;;;;15.70;14.30;;;;;;;;;;5108488;27;24577;-65
2021/09/04 08:25:52;;;;;;;15.33;14.03;;;;;;;;;;5109043;28;24418;-65
2021/09/04 08:28:17;;;;;;;17.27;15.73;;;;;;;;;;5108656;28;24467;-65
2021/09/04 08:30:42;;;;;;;18.60;17.00;;;;;;;;;;5109200;28;24410;-65
2021/09/04 08:33:07;;;;;;;13.43;12.33;;;;;;;;;;5115010;27;24422;-65
2021/09/04 08:35:33;;;;;;;18.35;16.77;;;;;;;;;;5108787;28;24420;-65
2021/09/04 08:37:59;;;;;;;20.23;18.38;;;;;;;;;;5107644;28;24550;-65
2021/09/04 08:40:24;;;;;;;17.55;16.02;;;;;;;;;;5108465;28;24983;-65
2021/09/04 08:42:49;;;;;;;17.80;16.20;;;;;;;;;;5112319;27;24505;-65
2021/09/04 08:45:14;;;;;;;20.50;18.60;;;;;;;;;;5110378;27;24417;-65
2021/09/04 08:47:39;;;;;;;19.40;17.60;;;;;;;;;;5106182;28;24452;-65
2021/09/04 08:50:05;;;;;;;19.20;17.50;;;;;;;;;;5108549;28;24545;-65
2021/09/04 08:52:31;;;;;;;20.47;18.60;;;;;;;;;;5108607;28;24470;-65
2021/09/04 08:54:56;;;;;;;20.15;18.35;;;;;;;;;;5109443;27;24413;-65
2021/09/04 08:57:21;;;;;;;19.23;17.53;;;;;;;;;;5107437;28;24966;-65
2021/09/04 08:59:50;;;;;;;15.70;14.40;;;;;;;;;;5103281;27;24424;-64
2021/09/04 09:02:15;;;;;;;16.07;14.63;;;;;;;;;;5109285;27;24488;-65
2021/09/04 09:04:41;;;;;;;19.97;18.17;;;;;;;;;;5108213;27;24429;-64
2021/09/04 09:07:08;;;;;;;18.03;16.50;;;;;;;;;;5107781;28;25040;-65
2021/09/04 09:09:33;;;;;;;18.47;16.87;;;;;;;;;;5107622;28;24413;-65
2021/09/04 09:11:59;;;;;;;20.40;18.50;;;;;;;;;;5107420;28;24417;-65
2021/09/04 09:14:25;;;;;;;14.63;13.32;;;;;;;;;;5108057;28;24416;-65
2021/09/04 09:16:58;;;;;;;19.27;17.48;;;;;;;;;;5107308;28;24990;-66
2021/09/04 09:19:36;;;;;;;14.88;13.48;;;;;;;;;;5104536;28;24528;-66
2021/09/04 09:22:10;;;;;;;18.02;16.33;;;;;;;;;;5107272;28;24421;-66
2021/09/04 09:24:35;;;;;;;13.20;12.10;;;;;;;;;;5110996;28;24783;-66
2021/09/04 09:27:01;;;;;;;19.30;17.40;;;;;;;;;;5106367;28;24967;-65
2021/09/04 09:29:34;;;;;;;15.25;13.95;;;;;;;;;;5107017;28;24554;-65
2021/09/04 09:32:09;;;;;;;12.90;11.80;;;;;;;;;;5104438;28;24502;-65
2021/09/04 09:34:35;;;;;;;14.55;13.15;;;;;;;;;;5107160;28;24424;-65
2021/09/04 09:37:01;;;;;;;16.87;15.33;;;;;;;;;;5115603;27;24847;-65
2021/09/04 09:39:27;;;;;;;13.40;12.20;;;;;;;;;;5107148;28;25029;-65
2021/09/04 09:41:53;;;;;;;14.35;13.05;;;;;;;;;;5106845;28;24950;-66
2021/09/04 09:44:19;;;;;;;17.20;15.60;;;;;;;;;;5106832;28;24424;-66
2021/09/04 09:46:52;;;;;;;15.75;14.35;;;;;;;;;;5107591;28;25019;-65
2021/09/04 09:49:17;;;;;;;16.75;15.18;;;;;;;;;;5107432;28;24424;-65
2021/09/04 09:51:43;;;;;;;18.43;16.73;;;;;;;;;;5107109;28;24459;-66
2021/09/04 09:54:09;;;;;;;16.92;15.40;;;;;;;;;;5106788;28;24857;-65
2021/09/04 09:56:35;;;;;;;22.08;19.98;;;;;;;;;;5107298;28;24496;-65
2021/09/04 09:59:00;;;;;;;16.10;14.60;;;;;;;;;;5110417;28;24536;-67
2021/09/04 10:01:25;;;;;;;16.40;14.83;;;;;;;;;;5110951;28;24429;-66
2021/09/04 10:03:51;;;;;;;15.23;13.83;;;;;;;;;;5111000;28;24466;-67
2021/09/04 10:06:16;;;;;;;17.03;15.43;;;;;;;;;;5111435;28;25102;-66
2021/09/04 10:08:41;;;;;;;16.17;14.77;;;;;;;;;;5110965;28;24384;-67
2021/09/04 10:11:07;;;;;;;17.30;15.80;;;;;;;;;;5112383;27;24410;-67
2021/09/04 10:13:32;;;;;;;17.43;15.83;;;;;;;;;;5111428;28;24503;-67
2021/09/04 10:15:59;;;;;;;16.40;15.00;;;;;;;;;;5111116;28;24985;-67
2021/09/04 10:18:24;;;;;;;19.55;17.77;;;;;;;;;;5110902;28;24405;-66
2021/09/04 10:20:58;;;;;;;23.08;20.98;;;;;;;;;;5118661;27;24421;-67
2021/09/04 10:23:30;;;;;;;21.65;19.65;;;;;;;;;;5122687;27;24439;-67
2021/09/04 10:25:55;;;;;;;24.00;21.70;;;;;;;;;;5111203;28;24679;-66
2021/09/04 10:28:20;;;;;;;25.00;22.47;;;;;;;;;;5110716;28;24416;-66
2021/09/04 10:30:52;;;;;;;24.47;22.17;;;;;;;;;;5113382;27;24946;-67
2021/09/04 10:33:17;;;;;;;26.50;24.00;;;;;;;;;;5110887;27;24410;-67
2021/09/04 10:35:49;;;;;;;28.08;25.48;;;;;;;;;;5110790;28;24455;-66
2021/09/04 10:38:17;;;;;;;30.00;27.15;;;;;;;;;;5110203;28;24389;-67
2021/09/04 10:40:43;;;;;;;29.17;26.38;;;;;;;;;;5110546;27;24841;-66
2021/09/04 10:43:08;;;;;;;28.07;25.27;;;;;;;;;;5110583;28;24923;-66
2021/09/04 10:45:35;;;;;;;27.05;24.58;;;;;;;;;;5110738;28;24397;-67
2021/09/04 10:48:00;;;;;;;28.40;25.80;;;;;;;;;;5109931;28;24448;-66
2021/09/04 10:50:30;;;;;;;31.83;28.50;;;;;;;;;;5112242;28;24527;-66
2021/09/04 10:53:03;;;;;;;27.67;25.08;;;;;;;;;;5129635;28;24388;-66
2021/09/04 10:55:39;;;;;;;26.88;24.38;;;;;;;;;;5129774;28;24389;-66
2021/09/04 10:58:08;;;;;;;26.95;24.35;;;;;;;;;;5113077;28;24416;-66
2021/09/04 11:00:44;;;;;;;24.90;22.70;;;;;;;;;;5113185;28;24915;-66
2021/09/04 11:03:17;;;;;;;26.08;23.75;;;;;;;;;;5129279;28;24751;-66
2021/09/04 11:05:52;;;;;;;26.65;24.15;;;;;;;;;;5129745;28;24377;-66
2021/09/04 11:08:20;;;;;;;28.30;25.50;;;;;;;;;;5128564;27;24945;-66
2021/09/04 11:10:49;;;;;;;26.83;24.33;;;;;;;;;;5113009;28;24475;-66
2021/09/04 11:13:14;;;;;;;24.02;21.75;;;;;;;;;;5129483;28;24453;-67
2021/09/04 11:15:43;;;;;;;27.98;25.23;;;;;;;;;;5129412;28;24442;-67
2021/09/04 11:18:10;;;;;;;25.27;22.77;;;;;;;;;;5129223;28;24795;-66
2021/09/04 11:20:45;;;;;;;24.30;22.00;;;;;;;;;;5129057;28;24950;-66
2021/09/04 11:23:11;;;;;;;26.58;24.17;;;;;;;;;;5111355;28;24401;-66
2021/09/04 11:25:40;;;;;;;22.55;20.55;;;;;;;;;;5108718;28;24422;-65
2021/09/04 11:28:05;;;;;;;26.23;23.60;;;;;;;;;;5108570;28;24382;-65
2021/09/04 11:30:30;;;;;;;23.23;21.03;;;;;;;;;;5108426;28;24420;-65
2021/09/04 11:33:11;;;;;;;23.07;20.87;;;;;;;;;;5108879;28;24424;-65
2021/09/04 11:35:44;;;;;;;24.60;22.30;;;;;;;;;;5108025;28;25066;-65
2021/09/04 11:38:09;;;;;;;26.27;23.88;;;;;;;;;;5108633;28;24519;-66
2021/09/04 11:40:34;;;;;;;26.00;23.50;;;;;;;;;;5108076;28;24524;-66
2021/09/04 11:43:04;;;;;;;26.42;23.92;;;;;;;;;;5108953;28;24401;-66
2021/09/04 11:45:31;;;;;;;27.30;24.50;;;;;;;;;;5108129;28;24401;-65
2021/09/04 11:48:03;;;;;;;27.38;24.77;;;;;;;;;;5107990;28;24421;-66
2021/09/04 11:50:32;;;;;;;28.70;25.80;;;;;;;;;;5047326;28;1716231;-66
2021/09/04 11:53:05;;;;;;;27.23;24.53;;;;;;;;;;5112969;27;24421;-64
2021/09/04 11:55:30;;;;;;;26.25;23.60;;;;;;;;;;5129562;27;24416;-66
2021/09/04 11:57:56;;;;;;;28.15;25.38;;;;;;;;;;5112115;27;24421;-66
2021/09/04 12:00:23;;;;;;;27.30;24.70;;;;;;;;;;5108939;28;24424;-67
2021/09/04 12:02:50;;;;;;;24.93;22.43;;;;;;;;;;5108516;28;25289;-66
2021/09/04 12:05:16;;;;;;;24.50;22.27;;;;;;;;;;5109792;27;24416;-66
2021/09/04 12:07:42;;;;;;;22.80;20.70;;;;;;;;;;5109379;28;24446;-66
2021/09/04 12:10:08;;;;;;;25.02;22.55;;;;;;;;;;5108246;28;24413;-66
2021/09/04 12:12:34;;;;;;;24.90;22.40;;;;;;;;;;5108789;28;24950;-66
2021/09/04 12:14:59;;;;;;;24.10;21.80;;;;;;;;;;5109615;27;24425;-65
2021/09/04 12:17:24;;;;;;;27.33;24.52;;;;;;;;;;5108696;28;24669;-65
2021/09/04 12:19:50;;;;;;;24.23;21.90;;;;;;;;;;5107492;28;24418;-66
2021/09/04 12:22:16;;;;;;;25.55;23.05;;;;;;;;;;5108454;28;24505;-65
2021/09/04 12:24:41;;;;;;;25.73;23.13;;;;;;;;;;5109411;27;24417;-65
2021/09/04 12:27:07;;;;;;;24.90;22.40;;;;;;;;;;5108560;28;24484;-65
2021/09/04 12:29:32;;;;;;;23.67;21.47;;;;;;;;;;5108121;28;24398;-65
2021/09/04 12:32:06;;;;;;;23.50;21.20;;;;;;;;;;5108498;28;24833;-65
2021/09/04 12:34:31;;;;;;;22.65;20.35;;;;;;;;;;5122772;27;24424;-65
2021/09/04 12:36:56;;;;;;;23.90;21.40;;;;;;;;;;5109071;27;24402;-65
2021/09/04 12:39:22;;;;;;;24.80;22.30;;;;;;;;;;5128269;27;24928;-66
2021/09/04 12:41:57;;;;;;;24.15;21.58;;;;;;;;;;5128264;27;25080;-66
2021/09/04 12:44:23;;;;;;;21.30;19.20;;;;;;;;;;5115729;27;24434;-65
2021/09/04 12:46:48;;;;;;;20.60;18.60;;;;;;;;;;5108124;28;24424;-65
2021/09/04 12:49:24;;;;;;;20.85;18.85;;;;;;;;;;5107501;28;24417;-65
2021/09/04 12:52:08;;;;;;;22.45;20.25;;;;;;;;;;5108258;28;25042;-66
2021/09/04 12:54:36;;;;;;;23.30;20.80;;;;;;;;;;5108652;27;24456;-64
2021/09/04 12:57:02;;;;;;;20.30;18.33;;;;;;;;;;5108168;28;24409;-65
2021/09/04 12:59:27;;;;;;;21.60;19.40;;;;;;;;;;5107659;28;24401;-64
2021/09/04 13:01:52;;;;;;;21.93;19.63;;;;;;;;;;5107520;28;24993;-65
2021/09/04 13:04:19;;;;;;;18.20;16.30;;;;;;;;;;5107617;27;24460;-65
2021/09/04 13:06:44;;;;;;;20.52;18.42;;;;;;;;;;5107171;28;24409;-65
2021/09/04 13:09:09;;;;;;;20.80;18.70;;;;;;;;;;5107636;28;24413;-65
2021/09/04 13:11:34;;;;;;;18.50;16.60;;;;;;;;;;5107808;28;24405;-65
2021/09/04 13:13:59;;;;;;;20.73;18.63;;;;;;;;;;5115722;27;24413;-65
2021/09/04 13:16:26;;;;;;;20.13;18.13;;;;;;;;;;5118151;27;25034;-66
2021/09/04 13:18:51;;;;;;;23.63;21.20;;;;;;;;;;5104096;28;24520;-65
2021/09/04 13:21:17;;;;;;;21.13;19.02;;;;;;;;;;5094688;28;24509;-64
2021/09/04 13:23:42;;;;;;;20.25;18.15;;;;;;;;;;5089120;28;24394;-65
2021/09/04 13:26:07;;;;;;;17.73;16.03;;;;;;;;;;5108310;27;24490;-65
2021/09/04 13:28:32;;;;;;;20.55;18.42;;;;;;;;;;5107258;28;24969;-66
2021/09/04 13:31:00;;;;;;;21.23;18.30;;;;;;;;;;5107232;28;24452;-66
2021/09/04 13:33:25;;;;;;;18.40;16.60;;;;;;;;;;5107399;28;24382;-65
2021/09/04 13:35:50;;;;;;;20.60;18.40;;;;;;;;;;5108316;28;24471;-66
2021/09/04 13:38:16;;;;;;;19.87;17.97;;;;;;;;;;5107517;28;25015;-66
2021/09/04 13:40:41;;;;;;;18.67;16.87;;;;;;;;;;5106791;28;24432;-65
2021/09/04 13:43:06;;;;;;;21.07;18.97;;;;;;;;;;5107633;28;24743;-66
2021/09/04 13:45:31;;;;;;;20.80;18.60;;;;;;;;;;5114064;28;24417;-65
2021/09/04 13:47:57;;;;;;;20.40;18.40;;;;;;;;;;5127656;27;24405;-65
2021/09/04 13:50:22;;;;;;;22.40;20.30;;;;;;;;;;5127491;28;24413;-65
2021/09/04 13:52:47;;;;;;;20.70;18.70;;;;;;;;;;5124021;28;24402;-66
2021/09/04 13:55:12;;;;;;;20.80;18.75;;;;;;;;;;5107070;28;24405;-65
2021/09/04 13:57:37;;;;;;;20.00;18.00;;;;;;;;;;5085292;28;24447;-66
2021/09/04 14:00:03;;;;;;;21.35;19.25;;;;;;;;;;5086664;28;24414;-65
2021/09/04 14:02:28;;;;;;;21.47;19.37;;;;;;;;;;5101637;28;24414;-65
2021/09/04 14:04:53;;;;;;;20.23;18.23;;;;;;;;;;5107463;28;24930;-66
2021/09/04 14:07:19;;;;;;;22.60;20.35;;;;;;;;;;5120332;28;24424;-65
2021/09/04 14:09:44;;;;;;;21.07;19.00;;;;;;;;;;5121423;28;24488;-65
2021/09/04 14:12:09;;;;;;;18.20;16.50;;;;;;;;;;5104957;28;24562;-65